createdAt,value
2022-11-16T01:43:24.629Z,9.303135
2022-11-16T01:44:30.377Z,9.303135
2022-11-16T01:45:50.201Z,9.303010
2022-11-16T01:47:07.671Z,9.303044
2022-11-16T01:48:31.665Z,9.303100
2022-11-16T01:50:23.033Z,9.303100
2022-11-16T01:50:27.992Z,9.303100
2022-11-16T01:52:01.700Z,9.303060
2022-11-16T01:53:16.280Z,9.303176
2022-11-16T01:55:16.996Z,9.303061
2022-11-16T01:55:33.355Z,9.303061
2022-11-16T01:56:58.027Z,9.302950
2022-11-16T01:57:55.726Z,9.302972
2022-11-16T01:58:47.885Z,9.303110
2022-11-16T01:59:27.170Z,9.303080
2022-11-16T02:00:33.173Z,9.303070
2022-11-16T02:01:52.305Z,9.303020
2022-11-16T02:11:54.320Z,9.303588
2022-11-16T02:12:54.294Z,9.303659
2022-11-16T02:13:53.886Z,9.303659
2022-11-16T02:14:53.738Z,9.303659
2022-11-16T02:15:54.175Z,9.303659
2022-11-16T02:16:53.464Z,9.303659
2022-11-16T02:17:54.112Z,9.303659
2022-11-16T02:18:53.803Z,9.303659
2022-11-16T02:19:53.931Z,9.303659
2022-11-16T02:20:53.216Z,9.303659
2022-11-16T02:21:53.465Z,9.303659
2022-11-16T02:22:53.232Z,9.303659
2022-11-16T02:23:53.291Z,9.303659
2022-11-16T02:24:53.337Z,9.303659
2022-11-16T02:25:53.671Z,9.303659
2022-11-16T02:26:53.270Z,9.303659
2022-11-16T02:27:53.029Z,9.303659
2022-11-16T02:28:53.224Z,9.303659
2022-11-16T02:29:52.960Z,9.303659
2022-11-16T02:30:53.142Z,9.302952
2022-11-16T02:31:53.165Z,9.303003
2022-11-16T02:51:58.262Z,9.303149
2022-11-16T02:52:58.001Z,9.303220
2022-11-16T02:53:57.998Z,9.303300
2022-11-16T02:54:58.035Z,9.303286
2022-11-16T02:55:58.058Z,9.303181
2022-11-16T02:56:57.949Z,9.303162
2022-11-16T02:57:58.041Z,9.303144
2022-11-16T02:58:58.112Z,9.303198
2022-11-16T02:59:58.008Z,9.303291
2022-11-16T03:00:58.064Z,9.303123
2022-11-16T03:01:57.983Z,9.303009
2022-11-16T03:02:57.833Z,9.303056
2022-11-16T03:03:57.941Z,9.303151
2022-11-16T03:04:57.875Z,9.303275
2022-11-16T03:05:57.982Z,9.303245
2022-11-16T03:06:57.973Z,9.303082
2022-11-16T03:07:57.907Z,9.303226
2022-11-16T03:08:57.897Z,9.303138
2022-11-16T03:09:57.964Z,9.303132
2022-11-16T03:10:57.936Z,9.302889
2022-11-16T03:11:57.838Z,9.302976
2022-11-16T03:12:57.865Z,9.303151
2022-11-16T03:13:57.833Z,9.303204
2022-11-16T03:14:57.845Z,9.303163
2022-11-16T03:15:57.699Z,9.302935
2022-11-16T03:16:57.748Z,9.302876
2022-11-16T03:17:57.838Z,9.303020
2022-11-16T03:18:57.836Z,9.303025
2022-11-16T03:19:57.872Z,9.303028
2022-11-16T03:20:57.839Z,9.302982
2022-11-16T03:21:57.715Z,9.302932
2022-11-16T03:22:57.763Z,9.302924
2022-11-16T03:23:57.642Z,9.302973
2022-11-16T03:24:57.684Z,9.302990
2022-11-16T03:25:57.623Z,9.302998
2022-11-16T03:26:57.698Z,9.303072
2022-11-16T03:27:57.647Z,9.303014
2022-11-16T03:28:57.738Z,9.303085
2022-11-16T03:29:57.775Z,9.302960
2022-11-16T03:30:57.587Z,9.303057
2022-11-16T03:31:57.605Z,9.303029
2022-11-16T03:32:57.575Z,9.303067
2022-11-16T03:33:57.834Z,9.302992
2022-11-16T03:34:57.608Z,9.303074
2022-11-16T03:35:57.561Z,9.303121
2022-11-16T03:36:57.766Z,9.303087
2022-11-16T03:37:57.568Z,9.303069
2022-11-16T03:38:57.491Z,9.303044
2022-11-16T03:39:57.577Z,9.302934
2022-11-16T03:40:57.552Z,9.302729
2022-11-16T03:41:57.528Z,9.302938
2022-11-16T03:42:57.482Z,9.302995
2022-11-16T03:43:57.575Z,9.303028
2022-11-16T03:44:57.674Z,9.303004
2022-11-16T03:45:57.537Z,9.303045
2022-11-16T03:46:57.521Z,9.303011
2022-11-16T03:47:57.461Z,9.302978
2022-11-16T03:48:57.633Z,9.303110
2022-11-16T03:49:58.202Z,9.302949
2022-11-16T03:50:57.344Z,9.302962
2022-11-16T03:51:57.717Z,9.302931
2022-11-16T03:52:57.435Z,9.303000
2022-11-16T03:53:57.839Z,9.303043
2022-11-16T03:54:58.338Z,9.303046
2022-11-16T03:55:59.577Z,9.303049
2022-11-16T03:57:05.962Z,9.303094
2022-11-16T03:58:00.429Z,9.303136
2022-11-16T03:58:57.781Z,9.303079
2022-11-16T03:59:58.362Z,9.303050
2022-11-16T04:00:58.417Z,9.303060
2022-11-16T04:01:58.835Z,9.303038
2022-11-16T04:02:59.357Z,9.303056
2022-11-16T04:04:15.089Z,9.303007
2022-11-16T04:05:02.828Z,9.303008
2022-11-16T04:05:59.724Z,9.302823
2022-11-16T04:07:01.260Z,9.302927
2022-11-16T04:07:57.808Z,9.302911
2022-11-16T04:09:00.427Z,9.302708
2022-11-16T04:23:34.823Z,9.303447
2022-11-16T04:24:33.221Z,9.303182
2022-11-16T04:26:15.751Z,9.302881
2022-11-16T04:26:35.913Z,9.302921
2022-11-16T04:27:33.158Z,9.302906
2022-11-16T06:28:05.271Z,9.303170
2022-11-16T06:29:11.169Z,9.303172
2022-11-16T06:32:28.785Z,9.303172
2022-11-16T06:33:49.598Z,9.303156
2022-11-16T06:34:43.744Z,9.303260
2022-11-16T06:35:13.578Z,9.303164
2022-11-16T06:36:54.142Z,9.303214
2022-11-16T07:32:51.333Z,9.303385
2022-11-16T07:32:55.716Z,9.303385
2022-11-16T07:40:00.020Z,9.303766
2022-11-16T07:41:00.599Z,9.303367
2022-11-16T08:46:36.687Z,9.303063
2022-11-16T08:47:35.726Z,9.303033
2022-11-16T08:48:40.361Z,9.302912
2022-11-16T08:49:45.250Z,9.302914
2022-11-16T08:51:16.034Z,9.302955
2022-11-16T08:51:52.457Z,9.302988
2022-11-16T09:21:22.010Z,9.302951
2022-11-16T09:22:16.949Z,9.302941
2022-11-16T09:23:22.285Z,9.302901
2022-11-16T09:26:33.811Z,9.303083
2022-11-16T09:26:50.756Z,9.303083
2022-11-16T11:21:29.996Z,9.303501
2022-11-16T11:22:29.857Z,9.303309
2022-11-16T11:23:29.800Z,9.303209
2022-11-16T11:24:43.987Z,9.302958
2022-11-16T11:25:36.955Z,9.302748
2022-11-16T11:26:35.890Z,9.303189
2022-11-16T11:27:32.450Z,9.303438
2022-11-16T11:39:14.071Z,9.302947
2022-11-16T11:39:40.093Z,9.303131
2022-11-16T11:41:12.076Z,9.303074
2022-11-16T11:42:15.836Z,9.303100
2022-11-16T11:42:39.929Z,9.303185
2022-11-16T11:43:39.563Z,9.303153
2022-11-16T11:44:39.373Z,9.303120
2022-11-16T11:45:40.387Z,9.303124
2022-11-16T11:47:28.594Z,9.303061
2022-11-16T11:47:57.400Z,9.303123
2022-11-16T11:49:09.084Z,9.303113
2022-11-16T11:49:40.276Z,9.303150
2022-11-16T11:50:39.800Z,9.303001
2022-11-16T11:51:39.492Z,9.303126
2022-11-16T11:52:39.319Z,9.303156
2022-11-16T11:53:39.264Z,9.303065
2022-11-16T11:54:44.662Z,9.303115
2022-11-16T12:44:06.837Z,9.302961
